Time;durP1;ratioP1;P1;durP2;ratioP2;P2;SDS_P1;SDS_P2;PMS_P1;PMS_P2;Temp;Humidity;BMP_temperature;BMP_pressure;BME280_temperature;BME280_humidity;BME280_pressure;Samples;Min_cycle;Max_cycle;Signal;HPM_P1;HPM_P2
2023/03/06 00:00:25;;;;;;;37.55;14.32;;;2.70;99.90;;;;;;5047692;28;20142;-56
2023/03/06 00:02:52;;;;;;;42.45;15.68;;;2.60;99.90;;;;;;5051337;28;20033;-57
2023/03/06 00:05:19;;;;;;;39.28;13.90;;;2.50;99.90;;;;;;5050108;28;20497;-58
2023/03/06 00:07:45;;;;;;;31.35;12.15;;;2.50;99.90;;;;;;5051432;28;20045;-57
2023/03/06 00:10:24;;;;;;;27.80;12.07;;;2.50;99.90;;;;;;5048908;28;20052;-57
2023/03/06 00:12:52;;;;;;;34.03;12.57;;;2.40;99.90;;;;;;5051400;28;20072;-51
2023/03/06 00:15:20;;;;;;;33.83;13.02;;;2.30;99.90;;;;;;5050891;28;20121;-53
2023/03/06 00:17:46;;;;;;;;;;;2.30;99.90;;;;;;5051997;28;20066;-49
2023/03/06 00:20:13;;;;;;;28.15;11.65;;;2.40;99.90;;;;;;5048870;28;19921;-51
2023/03/06 00:22:41;;;;;;;29.20;11.48;;;2.40;99.90;;;;;;5051309;28;20559;-49
2023/03/06 00:25:13;;;;;;;31.20;11.77;;;2.40;99.90;;;;;;5051283;28;20094;-50
2023/03/06 00:27:40;;;;;;;30.60;10.80;;;2.40;99.90;;;;;;5050859;28;20112;-51
2023/03/06 00:30:10;;;;;;;31.55;12.40;;;2.40;99.90;;;;;;5049020;28;20033;-52
2023/03/06 00:32:36;;;;;;;34.75;11.73;;;2.40;99.90;;;;;;5050923;28;20044;-49
2023/03/06 00:35:04;;;;;;;28.10;10.43;;;2.40;99.90;;;;;;5049636;28;20711;-52
2023/03/06 00:37:30;;;;;;;27.23;10.40;;;2.30;99.90;;;;;;5049359;28;20079;-53
2023/03/06 00:39:57;;;;;;;32.90;11.43;;;2.40;99.90;;;;;;5050930;28;20777;-49
2023/03/06 00:42:24;;;;;;;32.67;11.05;;;2.30;99.90;;;;;;5049904;28;20110;-49
2023/03/06 00:44:51;;;;;;;29.35;11.45;;;2.40;99.90;;;;;;5050175;28;20033;-49
2023/03/06 00:47:18;;;;;;;32.67;12.18;;;2.40;99.90;;;;;;5049337;28;20091;-50
2023/03/06 00:49:44;;;;;;;37.55;11.20;;;2.40;99.90;;;;;;5049053;28;20082;-50
2023/03/06 00:52:12;;;;;;;35.50;12.80;;;2.40;99.90;;;;;;5050768;28;20041;-51
2023/03/06 00:54:39;;;;;;;29.77;11.25;;;2.40;99.90;;;;;;5048891;28;20037;-50
2023/03/06 00:57:07;;;;;;;25.17;10.48;;;2.40;99.90;;;;;;5049398;28;20057;-49
2023/03/06 00:59:33;;;;;;;;;;;2.40;99.90;;;;;;5045729;28;20092;-50
2023/03/06 01:02:00;;;;;;;27.20;10.07;;;2.40;99.90;;;;;;5051009;28;20305;-50
2023/03/06 01:04:28;;;;;;;;;;;2.40;99.90;;;;;;5045326;28;20036;-50
2023/03/06 01:06:54;;;;;;;28.17;10.98;;;2.40;99.90;;;;;;5049421;28;20507;-49
2023/03/06 01:09:23;;;;;;;29.20;12.10;;;2.40;99.90;;;;;;5048586;28;20037;-51
2023/03/06 01:11:52;;;;;;;30.35;10.80;;;2.30;99.90;;;;;;5044390;28;20437;-49
2023/03/06 01:14:19;;;;;;;28.58;10.18;;;2.30;99.90;;;;;;5049836;28;20041;-52
2023/03/06 01:16:47;;;;;;;28.13;10.95;;;2.40;99.90;;;;;;5049781;28;20056;-49
2023/03/06 01:19:16;;;;;;;34.47;12.05;;;2.40;99.90;;;;;;5050515;28;20296;-49
2023/03/06 01:21:44;;;;;;;31.02;11.70;;;2.30;99.90;;;;;;5044315;28;20060;-51
2023/03/06 01:24:10;;;;;;;22.70;7.82;;;2.40;99.90;;;;;;5043870;28;20055;-49
2023/03/06 01:26:37;;;;;;;21.50;8.25;;;2.40;99.90;;;;;;5050473;28;20040;-49
2023/03/06 01:29:05;;;;;;;39.15;11.85;;;2.40;99.90;;;;;;5049243;28;20049;-51
2023/03/06 01:31:32;;;;;;;36.05;12.30;;;2.40;99.90;;;;;;5049687;28;20029;-49
2023/03/06 01:33:59;;;;;;;26.63;10.57;;;2.50;99.90;;;;;;5050510;28;20574;-50
2023/03/06 01:36:26;;;;;;;34.38;12.30;;;2.50;99.90;;;;;;5049266;28;20082;-49
2023/03/06 01:38:53;;;;;;;27.60;10.63;;;2.50;99.90;;;;;;5045285;28;20049;-52
2023/03/06 01:41:20;;;;;;;27.17;8.88;;;2.50;99.90;;;;;;5049680;28;20052;-49
2023/03/06 01:43:47;;;;;;;32.30;12.93;;;2.50;99.90;;;;;;5049563;28;20049;-49
2023/03/06 01:46:23;;;;;;;29.00;11.18;;;2.50;99.90;;;;;;5049237;28;20079;-54
2023/03/06 01:48:55;;;;;;;26.23;10.55;;;2.50;99.90;;;;;;5045559;28;20083;-50
2023/03/06 01:51:26;;;;;;;29.33;10.88;;;2.50;99.90;;;;;;5031168;28;20105;-49
2023/03/06 01:53:54;;;;;;;33.33;12.02;;;2.50;99.90;;;;;;5030811;28;20046;-50
2023/03/06 01:56:22;;;;;;;34.72;11.48;;;2.50;99.90;;;;;;5049553;28;20041;-50
2023/03/06 01:58:50;;;;;;;30.33;10.68;;;2.40;99.90;;;;;;5048841;28;20045;-50
2023/03/06 02:01:17;;;;;;;28.52;10.95;;;2.40;99.90;;;;;;5049570;28;20051;-52
2023/03/06 02:03:46;;;;;;;27.70;10.68;;;2.40;99.90;;;;;;5047171;28;20064;-50
2023/03/06 02:06:18;;;;;;;25.83;10.77;;;2.40;99.90;;;;;;5054641;28;20440;-51
2023/03/06 02:08:48;;;;;;;31.08;11.75;;;2.30;99.90;;;;;;5052859;28;20053;-51
2023/03/06 02:11:23;;;;;;;33.42;11.50;;;2.30;99.90;;;;;;5047257;28;20094;-51
2023/03/06 02:13:52;;;;;;;31.48;11.90;;;2.30;99.90;;;;;;5053191;28;20076;-49
2023/03/06 02:16:28;;;;;;;30.50;11.82;;;2.30;99.90;;;;;;5053098;28;20049;-49
2023/03/06 02:18:57;;;;;;;29.30;12.07;;;2.30;99.90;;;;;;5046087;28;20052;-50
2023/03/06 02:21:33;;;;;;;33.55;11.40;;;2.40;99.90;;;;;;5053019;28;20115;-49
2023/03/06 02:24:22;;;;;;;29.60;11.35;;;2.30;99.90;;;;;;5053859;28;20049;-49
2023/03/06 02:26:50;;;;;;;30.45;11.50;;;2.30;99.90;;;;;;5040827;28;20498;-52
2023/03/06 02:29:23;;;;;;;29.67;11.25;;;2.30;99.90;;;;;;5052174;28;20037;-53
2023/03/06 02:31:50;;;;;;;32.03;11.15;;;2.20;99.90;;;;;;5066052;28;20091;-50
2023/03/06 02:34:19;;;;;;;27.80;11.43;;;2.20;99.90;;;;;;5052629;28;20118;-52
2023/03/06 02:36:49;;;;;;;32.10;11.95;;;2.20;99.90;;;;;;5052635;28;20044;-49
2023/03/06 02:39:20;;;;;;;33.47;11.63;;;2.20;99.90;;;;;;5051614;28;20132;-49
2023/03/06 02:41:47;;;;;;;32.70;11.40;;;2.20;99.90;;;;;;5051337;28;20076;-50
2023/03/06 02:44:15;;;;;;;31.00;10.77;;;2.20;99.90;;;;;;5052335;28;20559;-50
2023/03/06 02:46:42;;;;;;;22.85;8.90;;;2.20;99.90;;;;;;5051655;28;20059;-49
2023/03/06 02:49:08;;;;;;;29.27;11.00;;;2.20;99.90;;;;;;5053297;28;20079;-49
2023/03/06 02:51:35;;;;;;;29.10;10.48;;;2.10;99.90;;;;;;5051680;28;20410;-51
2023/03/06 02:54:02;;;;;;;30.83;11.77;;;2.10;99.90;;;;;;5052450;28;20107;-51
2023/03/06 02:56:29;;;;;;;32.28;11.43;;;2.10;99.90;;;;;;5053665;28;20045;-49
2023/03/06 02:58:56;;;;;;;;;;;2.10;99.90;;;;;;5051152;28;20136;-47
2023/03/06 03:02:15;;;;;;;35.43;11.13;;;2.00;99.90;;;;;;5064429;22;19971;-54
2023/03/06 03:04:43;;;;;;;29.17;10.88;;;2.00;99.90;;;;;;5014980;28;20348;-53
2023/03/06 03:07:10;;;;;;;32.33;12.07;;;1.90;99.90;;;;;;5015762;28;20048;-51
2023/03/06 03:09:37;;;;;;;31.95;12.68;;;1.90;99.90;;;;;;5017934;28;20033;-51
2023/03/06 03:12:05;;;;;;;32.75;12.27;;;1.90;99.90;;;;;;5052953;28;20401;-53
2023/03/06 03:14:33;;;;;;;36.28;12.73;;;1.90;99.90;;;;;;5035475;28;20140;-51
2023/03/06 03:17:01;;;;;;;33.35;12.18;;;1.80;99.90;;;;;;5034570;28;20056;-51
2023/03/06 03:19:28;;;;;;;31.25;11.68;;;1.80;99.90;;;;;;5029415;28;20099;-51
2023/03/06 03:21:55;;;;;;;33.92;11.98;;;1.70;99.90;;;;;;5031985;28;20152;-53
2023/03/06 03:24:23;;;;;;;32.72;11.38;;;1.60;99.90;;;;;;5051289;28;20124;-51
2023/03/06 03:26:49;;;;;;;;;;;1.50;99.90;;;;;;5051000;28;20116;-50
2023/03/06 03:29:18;;;;;;;34.08;11.10;;;1.50;99.90;;;;;;5039165;28;19927;-52
2023/03/06 03:31:46;;;;;;;33.58;11.40;;;1.50;99.90;;;;;;5029315;28;20511;-51
2023/03/06 03:34:14;;;;;;;30.30;10.35;;;1.50;99.90;;;;;;5034098;28;20045;-52
2023/03/06 03:36:41;;;;;;;31.05;10.85;;;1.40;99.90;;;;;;5034489;28;20172;-51
2023/03/06 03:39:10;;;;;;;32.92;11.52;;;1.40;99.90;;;;;;5038622;28;20493;-51
2023/03/06 03:41:40;;;;;;;29.27;10.27;;;1.40;99.90;;;;;;5055423;28;20055;-53
2023/03/06 03:44:08;;;;;;;33.20;11.02;;;1.40;99.90;;;;;;5054325;28;20485;-51
2023/03/06 03:46:35;;;;;;;32.30;11.75;;;1.40;99.90;;;;;;5052413;28;20051;-51
2023/03/06 03:49:05;;;;;;;34.47;11.10;;;1.40;99.90;;;;;;5030165;28;20075;-52
2023/03/06 03:51:32;;;;;;;33.17;12.00;;;1.40;99.90;;;;;;5045379;28;20049;-50
2023/03/06 03:53:59;;;;;;;32.58;11.88;;;1.40;99.90;;;;;;5030875;28;20063;-50
2023/03/06 03:56:31;;;;;;;34.67;12.52;;;1.30;99.90;;;;;;5031323;28;20049;-50
2023/03/06 03:59:09;;;;;;;36.05;12.95;;;1.30;99.90;;;;;;5029086;28;20045;-50
2023/03/06 04:01:44;;;;;;;28.15;11.98;;;1.30;99.90;;;;;;5043164;28;20069;-52
2023/03/06 04:04:11;;;;;;;32.05;11.60;;;1.30;99.90;;;;;;5032601;28;20041;-52
2023/03/06 04:06:40;;;;;;;29.13;10.80;;;1.30;99.90;;;;;;5042536;28;20045;-51
2023/03/06 04:09:07;;;;;;;31.55;11.70;;;1.30;99.90;;;;;;5013729;28;20132;-54
2023/03/06 04:11:35;;;;;;;32.83;11.50;;;1.30;99.90;;;;;;5014459;28;20133;-51
2023/03/06 04:14:02;;;;;;;33.10;11.63;;;1.30;99.90;;;;;;5037475;28;20053;-50
2023/03/06 04:16:29;;;;;;;;;;;1.30;99.90;;;;;;5030963;28;20057;-50
2023/03/06 04:18:56;;;;;;;33.97;10.48;;;1.30;99.90;;;;;;5014030;28;19921;-52
2023/03/06 04:21:23;;;;;;;31.48;11.13;;;1.20;99.90;;;;;;5033030;28;20056;-52
2023/03/06 04:23:50;;;;;;;30.50;12.32;;;1.10;99.90;;;;;;5050166;28;20041;-53
2023/03/06 04:26:18;;;;;;;36.28;11.43;;;0.90;99.90;;;;;;5014430;28;20065;-52
2023/03/06 04:28:45;;;;;;;30.38;11.55;;;0.80;99.90;;;;;;5013410;28;20494;-51
2023/03/06 04:31:13;;;;;;;36.70;12.07;;;0.60;99.90;;;;;;5018232;28;20485;-50
2023/03/06 04:33:40;;;;;;;36.42;11.75;;;0.50;99.90;;;;;;5014620;28;20498;-51
2023/03/06 04:36:22;;;;;;;31.42;11.10;;;0.50;99.90;;;;;;5027205;28;20482;-52
2023/03/06 04:38:50;;;;;;;31.83;10.70;;;0.50;99.90;;;;;;5023316;28;20037;-55
2023/03/06 04:41:17;;;;;;;32.83;11.15;;;0.50;99.90;;;;;;5025103;28;20072;-51
2023/03/06 04:43:45;;;;;;;38.25;12.40;;;0.60;99.90;;;;;;5050973;28;20048;-50
2023/03/06 04:46:11;;;;;;;35.70;12.13;;;0.60;99.90;;;;;;5037046;28;20037;-52
2023/03/06 04:48:38;;;;;;;25.90;8.88;;;0.70;99.90;;;;;;5033069;28;20096;-51
2023/03/06 04:51:05;;;;;;;31.73;11.55;;;0.70;99.90;;;;;;5042096;28;20036;-51
2023/03/06 04:53:32;;;;;;;37.83;12.10;;;0.70;99.90;;;;;;5050813;28;20071;-51
2023/03/06 04:55:58;;;;;;;39.05;13.52;;;0.60;99.90;;;;;;5035614;28;20088;-50
2023/03/06 04:58:25;;;;;;;38.25;12.27;;;0.60;99.90;;;;;;5041523;28;20041;-51
2023/03/06 05:00:52;;;;;;;42.95;12.30;;;0.60;99.90;;;;;;5042944;28;20065;-54
2023/03/06 05:03:19;;;;;;;27.00;8.18;;;0.60;99.90;;;;;;5033026;28;20057;-50
2023/03/06 05:05:45;;;;;;;28.23;10.90;;;0.60;99.90;;;;;;5044394;28;20037;-51
2023/03/06 05:08:14;;;;;;;33.70;10.18;;;0.60;99.90;;;;;;5050221;28;20049;-53
2023/03/06 05:10:42;;;;;;;33.65;10.50;;;0.60;99.90;;;;;;5050193;28;20077;-52
2023/03/06 05:13:09;;;;;;;41.30;11.30;;;0.60;99.90;;;;;;5051179;28;20096;-51
2023/03/06 05:15:38;;;;;;;31.73;11.38;;;0.50;99.90;;;;;;5038755;28;20041;-50
2023/03/06 05:18:05;;;;;;;29.30;10.48;;;0.40;99.90;;;;;;5049527;28;20080;-50
2023/03/06 05:20:32;;;;;;;34.13;11.18;;;0.30;99.90;;;;;;5047468;28;20037;-50
2023/03/06 05:22:59;;;;;;;;;;;0.30;99.90;;;;;;5032201;28;20087;-52
2023/03/06 05:25:25;;;;;;;32.72;11.10;;;0.30;99.90;;;;;;5039136;28;19933;-51
2023/03/06 05:27:52;;;;;;;45.47;13.57;;;0.30;99.90;;;;;;5044508;28;20073;-53
2023/03/06 05:30:21;;;;;;;32.72;11.93;;;0.30;99.90;;;;;;5039069;28;20079;-52
2023/03/06 05:32:48;;;;;;;30.98;11.18;;;0.30;99.90;;;;;;5038647;28;20548;-55
2023/03/06 05:35:18;;;;;;;33.45;11.63;;;0.30;99.90;;;;;;5036195;28;20065;-52
2023/03/06 05:37:46;;;;;;;32.20;11.73;;;0.30;99.90;;;;;;5036855;28;20120;-51
2023/03/06 05:40:14;;;;;;;32.28;11.60;;;0.40;99.90;;;;;;5046731;28;20490;-51
2023/03/06 05:42:41;;;;;;;38.15;14.00;;;0.40;99.90;;;;;;5051823;28;20386;-51
2023/03/06 05:45:08;;;;;;;41.90;15.25;;;0.40;99.90;;;;;;5053096;28;20053;-51
2023/03/06 05:47:35;;;;;;;39.97;13.48;;;0.40;99.90;;;;;;5054742;28;20037;-51
2023/03/06 05:50:03;;;;;;;34.33;13.90;;;0.40;99.90;;;;;;5052773;28;20079;-52
2023/03/06 05:52:30;;;;;;;42.13;13.30;;;0.50;99.90;;;;;;5052534;28;20117;-53
2023/03/06 05:54:57;;;;;;;30.67;12.27;;;0.50;99.90;;;;;;5054507;28;20040;-50
2023/03/06 05:57:24;;;;;;;26.38;9.07;;;0.60;99.90;;;;;;5052928;28;20045;-50
2023/03/06 05:59:51;;;;;;;34.55;13.02;;;0.60;99.90;;;;;;5053206;28;20049;-51
2023/03/06 06:02:18;;;;;;;35.58;12.43;;;0.70;99.90;;;;;;5049256;28;20383;-51
2023/03/06 06:04:45;;;;;;;34.40;11.23;;;0.70;99.90;;;;;;5051795;28;20121;-53
2023/03/06 06:07:15;;;;;;;28.67;9.95;;;0.60;99.90;;;;;;5053551;28;20104;-51
2023/03/06 06:09:44;;;;;;;31.77;10.75;;;0.50;99.90;;;;;;5046028;28;20041;-51
2023/03/06 06:12:11;;;;;;;30.08;11.93;;;0.50;99.90;;;;;;5033664;28;20049;-52
2023/03/06 06:14:38;;;;;;;33.85;10.00;;;0.60;99.90;;;;;;5034161;28;20124;-51
2023/03/06 06:17:05;;;;;;;25.33;8.60;;;0.60;99.90;;;;;;5036098;28;20049;-52
2023/03/06 06:19:31;;;;;;;42.90;16.83;;;0.70;99.90;;;;;;5050422;28;20095;-52
2023/03/06 06:22:01;;;;;;;45.35;16.40;;;0.80;99.90;;;;;;5053750;28;20111;-51
2023/03/06 06:24:28;;;;;;;48.20;17.63;;;0.80;99.90;;;;;;5053196;28;20049;-52
2023/03/06 06:26:56;;;;;;;58.33;21.42;;;0.90;99.90;;;;;;5052210;28;20102;-52
2023/03/06 06:29:24;;;;;;;62.08;19.40;;;1.00;99.90;;;;;;5053319;28;20041;-52
2023/03/06 06:31:52;;;;;;;61.40;21.77;;;1.10;99.90;;;;;;5053746;28;20536;-51
2023/03/06 06:34:20;;;;;;;64.63;23.20;;;1.20;99.90;;;;;;5054073;28;20453;-52
2023/03/06 06:36:47;;;;;;;49.38;19.67;;;1.20;99.90;;;;;;5047829;28;20037;-53
2023/03/06 06:39:16;;;;;;;51.65;18.25;;;1.30;99.90;;;;;;5053034;28;20375;-52
2023/03/06 06:41:43;;;;;;;46.78;17.08;;;1.30;99.90;;;;;;5053752;28;20103;-53
2023/03/06 06:44:30;;;;;;;55.75;20.00;;;1.40;99.90;;;;;;5051366;28;20048;-52
2023/03/06 06:46:57;;;;;;;40.83;16.75;;;1.50;99.90;;;;;;5051132;28;20405;-52
2023/03/06 06:49:48;;;;;;;50.60;15.30;;;1.60;99.90;;;;;;5051449;28;20136;-54
2023/03/06 06:52:14;;;;;;;34.42;14.18;;;1.60;99.90;;;;;;5036739;28;20045;-53
2023/03/06 06:54:41;;;;;;;31.27;11.20;;;1.50;99.90;;;;;;5032207;28;20081;-54
2023/03/06 06:57:10;;;;;;;44.70;15.20;;;1.60;99.90;;;;;;5032257;28;20115;-51
2023/03/06 06:59:37;;;;;;;49.35;15.73;;;1.60;99.90;;;;;;5034487;28;20049;-54
2023/03/06 07:02:04;;;;;;;33.55;12.93;;;1.70;99.90;;;;;;5035451;28;20042;-52
2023/03/06 07:04:31;;;;;;;52.75;19.02;;;1.80;99.90;;;;;;5033481;28;20072;-53
2023/03/06 07:06:58;;;;;;;53.20;18.77;;;1.80;99.90;;;;;;5033375;28;20033;-51
2023/03/06 07:09:25;;;;;;;;;;;1.80;99.90;;;;;;5039212;28;20513;-51
2023/03/06 07:11:52;;;;;;;51.08;18.55;;;1.90;99.90;;;;;;5053033;28;19952;-54
2023/03/06 07:14:19;;;;;;;56.38;18.88;;;2.10;99.90;;;;;;5051900;28;20037;-51
2023/03/06 07:16:45;;;;;;;27.33;11.00;;;2.20;99.90;;;;;;5050733;28;20052;-52
2023/03/06 07:19:12;;;;;;;41.85;15.20;;;2.10;99.90;;;;;;5052026;28;20049;-54
2023/03/06 07:21:39;;;;;;;46.35;16.55;;;2.10;99.90;;;;;;5053016;28;20048;-54
2023/03/06 07:24:06;;;;;;;46.15;15.15;;;2.10;99.90;;;;;;5052971;28;20479;-52
2023/03/06 07:26:33;;;;;;;36.72;14.93;;;2.20;99.90;;;;;;5048740;28;20083;-52
2023/03/06 07:29:01;;;;;;;36.72;14.90;;;2.30;99.90;;;;;;5040095;28;20042;-54
2023/03/06 07:31:27;;;;;;;;;;;2.40;99.90;;;;;;5053059;28;20090;-53
2023/03/06 07:33:54;;;;;;;34.35;14.95;;;2.40;99.90;;;;;;5052444;28;19928;-52
2023/03/06 07:36:22;;;;;;;42.90;16.23;;;2.40;99.90;;;;;;5049086;28;20472;-52
2023/03/06 07:38:49;;;;;;;45.85;17.33;;;2.40;99.90;;;;;;5052121;28;20044;-52
2023/03/06 07:41:17;;;;;;;36.63;11.30;;;2.50;99.90;;;;;;5052247;28;20045;-54
2023/03/06 07:43:47;;;;;;;39.90;15.45;;;2.50;99.90;;;;;;5052768;28;20426;-54
2023/03/06 07:46:16;;;;;;;44.95;15.60;;;2.70;99.90;;;;;;5033700;28;20029;-52
2023/03/06 07:48:43;;;;;;;42.60;15.20;;;2.80;99.90;;;;;;5048910;28;20401;-50
2023/03/06 07:51:15;;;;;;;45.30;15.20;;;2.80;99.90;;;;;;5051906;28;20580;-50
2023/03/06 07:53:42;;;;;;;46.70;15.52;;;2.90;99.90;;;;;;5052124;28;20083;-51
2023/03/06 07:56:10;;;;;;;46.58;15.55;;;2.90;99.90;;;;;;5048763;28;20048;-54
2023/03/06 07:58:40;;;;;;;41.30;14.65;;;2.90;99.90;;;;;;5046021;28;20040;-53
2023/03/06 08:01:10;;;;;;;42.20;15.10;;;2.90;99.90;;;;;;5044111;28;20516;-52
2023/03/06 08:03:37;;;;;;;39.83;15.18;;;2.90;99.90;;;;;;5052291;28;20045;-51
2023/03/06 08:06:15;;;;;;;44.00;16.30;;;2.90;99.90;;;;;;5044559;28;20495;-50
2023/03/06 08:08:44;;;;;;;39.03;14.35;;;3.00;99.90;;;;;;5048187;28;20033;-51
2023/03/06 08:11:12;;;;;;;44.67;15.38;;;3.10;99.90;;;;;;5051699;28;20094;-52
2023/03/06 08:13:39;;;;;;;35.58;15.80;;;3.20;99.90;;;;;;5052244;28;20044;-51
2023/03/06 08:16:06;;;;;;;41.92;14.82;;;3.30;99.90;;;;;;5042532;28;20722;-54
2023/03/06 08:18:34;;;;;;;40.78;15.88;;;3.40;99.90;;;;;;5038527;28;20448;-52
2023/03/06 08:21:15;;;;;;;42.58;15.75;;;3.60;99.90;;;;;;5040061;28;20072;-52
2023/03/06 08:23:42;;;;;;;42.53;15.35;;;3.80;99.90;;;;;;5050560;28;20056;-50
2023/03/06 08:26:18;;;;;;;44.78;15.65;;;3.90;99.90;;;;;;5045102;28;20038;-50
2023/03/06 08:28:45;;;;;;;40.05;15.80;;;4.00;99.90;;;;;;5051112;28;20091;-51
2023/03/06 08:31:23;;;;;;;41.20;16.42;;;4.20;99.90;;;;;;5051704;28;20132;-52
2023/03/06 08:33:51;;;;;;;36.72;15.70;;;4.30;99.90;;;;;;5024127;28;20033;-52
2023/03/06 08:36:18;;;;;;;40.78;15.52;;;4.40;99.90;;;;;;5043554;28;20032;-50
2023/03/06 08:38:45;;;;;;;41.60;16.65;;;4.60;99.90;;;;;;5050225;28;20049;-51
2023/03/06 08:41:12;;;;;;;36.65;15.43;;;4.50;99.90;;;;;;5048488;28;20276;-51
2023/03/06 08:43:39;;;;;;;45.08;16.38;;;4.40;99.90;;;;;;5046084;28;20044;-51
2023/03/06 08:46:05;;;;;;;41.88;16.05;;;4.40;99.90;;;;;;5051363;28;20041;-54
2023/03/06 08:48:32;;;;;;;41.30;16.27;;;4.30;99.90;;;;;;5050417;28;20048;-51
2023/03/06 08:50:59;;;;;;;49.83;16.85;;;4.20;99.90;;;;;;5033211;28;20530;-52
2023/03/06 08:53:26;;;;;;;48.30;16.65;;;4.30;99.90;;;;;;5031569;28;20096;-52
2023/03/06 08:56:13;;;;;;;46.25;15.68;;;4.30;99.90;;;;;;5031592;28;20095;-53
2023/03/06 08:58:40;;;;;;;40.85;15.88;;;4.30;99.90;;;;;;5039846;28;20063;-52
2023/03/06 09:01:19;;;;;;;42.95;15.75;;;4.40;99.90;;;;;;5083662;22;20569;-49
2023/03/06 09:03:46;;;;;;;43.05;15.82;;;4.50;99.90;;;;;;5107146;28;20094;-53
2023/03/06 09:06:14;;;;;;;;;;;4.60;99.90;;;;;;5110459;28;20035;-49
2023/03/06 09:08:43;;;;;;;43.85;15.68;;;4.50;99.90;;;;;;5110409;28;20280;-51
2023/03/06 09:11:11;;;;;;;45.60;16.42;;;4.50;99.90;;;;;;5100503;28;20036;-48
2023/03/06 09:13:38;;;;;;;51.97;16.75;;;4.40;99.90;;;;;;5090698;28;20082;-51
2023/03/06 09:16:05;;;;;;;41.50;15.68;;;4.30;99.90;;;;;;5090316;28;20067;-49
2023/03/06 09:18:32;;;;;;;42.53;16.33;;;4.30;99.90;;;;;;5090828;28;20052;-52
2023/03/06 09:20:59;;;;;;;36.00;16.08;;;4.30;99.90;;;;;;5091289;28;20466;-52
2023/03/06 09:23:25;;;;;;;41.50;16.20;;;4.40;99.90;;;;;;5090024;28;20093;-54
2023/03/06 09:25:54;;;;;;;42.42;16.05;;;4.50;99.90;;;;;;5090946;28;20037;-51
2023/03/06 09:28:21;;;;;;;46.15;16.50;;;4.60;99.90;;;;;;5090648;28;20314;-51
2023/03/06 09:30:48;;;;;;;41.78;15.55;;;4.60;99.90;;;;;;5071396;28;20404;-49
2023/03/06 09:33:15;;;;;;;39.30;15.15;;;4.70;99.90;;;;;;5091134;28;20036;-52
2023/03/06 09:35:55;;;;;;;34.45;14.95;;;4.80;99.90;;;;;;5090080;28;20089;-49
2023/03/06 09:38:24;;;;;;;35.95;14.73;;;4.80;99.90;;;;;;5089725;28;20517;-52
2023/03/06 09:41:03;;;;;;;40.20;16.05;;;4.90;99.90;;;;;;5090973;28;20074;-51
2023/03/06 09:43:34;;;;;;;36.60;16.33;;;4.90;99.90;;;;;;5091052;28;20059;-51
2023/03/06 09:46:12;;;;;;;34.90;15.40;;;5.00;99.90;;;;;;5090728;28;20086;-52
2023/03/06 09:48:52;;;;;;;39.83;16.80;;;5.10;99.90;;;;;;5089910;28;20071;-49
2023/03/06 09:51:24;;;;;;;33.05;13.63;;;5.20;99.90;;;;;;5070816;28;20489;-48
2023/03/06 09:54:12;;;;;;;37.53;15.30;;;5.30;99.90;;;;;;5070704;28;20090;-50
2023/03/06 09:56:44;;;;;;;36.83;14.82;;;5.40;99.90;;;;;;5089904;28;20115;-48
2023/03/06 09:59:24;;;;;;;30.63;13.23;;;5.60;99.90;;;;;;5089032;28;20044;-48
2023/03/06 10:02:17;;;;;;;29.10;13.18;;;5.90;99.90;;;;;;5090718;28;20044;-48
2023/03/06 10:04:58;;;;;;;33.72;14.23;;;6.30;99.90;;;;;;5090629;28;20041;-49
2023/03/06 10:07:47;;;;;;;34.33;14.07;;;6.40;99.90;;;;;;5090824;28;20044;-51
2023/03/06 10:10:27;;;;;;;36.28;13.88;;;6.50;99.90;;;;;;5086647;28;20072;-51
2023/03/06 10:13:04;;;;;;;28.73;12.48;;;6.80;99.90;;;;;;5090692;28;20095;-50
2023/03/06 10:15:34;;;;;;;31.70;13.95;;;6.80;99.90;;;;;;5089901;28;20057;-50
2023/03/06 10:18:02;;;;;;;32.38;12.77;;;6.60;99.90;;;;;;5087226;28;20039;-51
2023/03/06 10:21:17;;;;;;;39.60;13.70;;;6.60;99.90;;;;;;5089724;28;20097;-52
2023/03/06 10:23:53;;;;;;;36.13;13.85;;;6.50;99.90;;;;;;5019117;28;20573;-52
2023/03/06 10:26:36;;;;;;;34.50;14.30;;;6.50;99.90;;;;;;5091239;28;20153;-51
2023/03/06 10:29:13;;;;;;;29.20;13.35;;;6.50;99.90;;;;;;5094025;28;20040;-55
2023/03/06 10:31:47;;;;;;;36.33;13.32;;;6.40;99.90;;;;;;5094304;28;20044;-55
2023/03/06 10:34:31;;;;;;;30.88;13.05;;;6.40;99.90;;;;;;5093503;28;20051;-51
2023/03/06 10:37:05;;;;;;;31.77;13.60;;;6.40;99.90;;;;;;5094025;28;20040;-51
2023/03/06 10:39:31;;;;;;;32.53;13.48;;;6.40;99.90;;;;;;5092168;28;20051;-51
2023/03/06 10:41:58;;;;;;;30.33;13.02;;;6.30;99.90;;;;;;5093836;28;20484;-51
2023/03/06 10:44:25;;;;;;;29.25;12.40;;;6.40;99.90;;;;;;5093593;28;20470;-50
2023/03/06 10:46:53;;;;;;;31.20;12.90;;;6.40;99.90;;;;;;5093998;28;20071;-51
2023/03/06 10:49:30;;;;;;;28.33;11.85;;;6.50;99.90;;;;;;5092795;28;20055;-51
2023/03/06 10:52:03;;;;;;;31.20;13.15;;;6.50;99.90;;;;;;5093670;28;20044;-51
2023/03/06 10:54:36;;;;;;;30.27;12.57;;;6.50;99.90;;;;;;5093867;28;20389;-54
2023/03/06 10:57:29;;;;;;;30.13;13.40;;;6.40;99.90;;;;;;5093355;28;20044;-50
2023/03/06 10:59:57;;;;;;;27.50;13.23;;;6.30;99.90;;;;;;5090059;28;20040;-53
2023/03/06 11:02:32;;;;;;;32.78;12.77;;;6.30;99.90;;;;;;5094439;28;20070;-50
2023/03/06 11:05:00;;;;;;;30.50;12.27;;;6.20;99.90;;;;;;5094186;28;20089;-52
2023/03/06 11:07:29;;;;;;;28.58;12.55;;;6.10;99.90;;;;;;5093047;28;20057;-52
2023/03/06 11:09:56;;;;;;;34.05;13.27;;;6.00;99.90;;;;;;5091691;28;20292;-51
2023/03/06 11:12:33;;;;;;;32.97;13.98;;;6.00;99.90;;;;;;5093063;28;20044;-50
2023/03/06 11:15:13;;;;;;;31.27;13.48;;;6.00;99.90;;;;;;5091949;28;20113;-51
2023/03/06 11:17:56;;;;;;;34.05;13.00;;;6.10;99.90;;;;;;5090310;28;20047;-51
2023/03/06 11:20:32;;;;;;;32.00;13.75;;;6.10;99.90;;;;;;5092899;28;20040;-51
2023/03/06 11:23:20;;;;;;;31.02;13.50;;;6.00;99.90;;;;;;5092370;28;20408;-51
2023/03/06 11:26:05;;;;;;;31.25;13.48;;;6.10;99.90;;;;;;5093123;28;20044;-50
2023/03/06 11:28:39;;;;;;;31.23;13.13;;;6.00;99.90;;;;;;5086549;28;20060;-51
2023/03/06 11:31:12;;;;;;;31.55;14.45;;;5.90;99.90;;;;;;5091591;28;20488;-51
2023/03/06 11:33:47;;;;;;;33.25;13.80;;;5.70;99.90;;;;;;5092974;28;20123;-52
2023/03/06 11:36:15;;;;;;;34.10;15.05;;;5.70;99.90;;;;;;5092444;28;20137;-52
2023/03/06 11:38:49;;;;;;;34.30;14.27;;;5.70;99.90;;;;;;5092164;28;20082;-50
2023/03/06 11:41:30;;;;;;;36.75;14.10;;;5.70;99.90;;;;;;5092169;28;20044;-52
2023/03/06 11:44:23;;;;;;;37.90;14.38;;;5.80;99.90;;;;;;5092587;28;20035;-51
2023/03/06 11:46:59;;;;;;;33.55;13.40;;;5.70;99.90;;;;;;5092648;28;20047;-51
2023/03/06 11:49:42;;;;;;;34.15;13.82;;;5.60;99.90;;;;;;5091329;28;20488;-52
2023/03/06 11:52:21;;;;;;;41.13;13.73;;;5.60;99.90;;;;;;5092376;28;20040;-51
2023/03/06 11:54:53;;;;;;;34.85;14.27;;;5.50;99.90;;;;;;5092458;28;20072;-51
2023/03/06 11:57:43;;;;;;;35.25;14.45;;;5.50;99.90;;;;;;5074134;28;20047;-52
2023/03/06 12:00:21;;;;;;;32.83;13.38;;;5.50;99.90;;;;;;5090854;28;20105;-51
2023/03/06 12:03:02;;;;;;;;;;;5.40;99.90;;;;;;5092666;28;20089;-53
2023/03/06 12:05:54;;;;;;;36.58;13.55;;;5.40;99.90;;;;;;5092016;28;19942;-51
2023/03/06 12:08:50;;;;;;;33.47;14.77;;;5.40;99.90;;;;;;5083996;28;20066;-51
2023/03/06 12:11:23;;;;;;;31.45;12.98;;;5.30;99.90;;;;;;5092118;28;20044;-52
2023/03/06 12:14:08;;;;;;;39.33;14.98;;;5.30;99.90;;;;;;5092357;28;20044;-52
2023/03/06 12:17:25;;;;;;;37.67;14.38;;;5.30;99.90;;;;;;5091605;28;20076;-51
2023/03/06 12:20:13;;;;;;;37.30;13.70;;;5.30;99.90;;;;;;5042560;28;20038;-51
2023/03/06 12:22:46;;;;;;;37.53;14.10;;;5.40;99.90;;;;;;5070270;28;20133;-51
2023/03/06 12:25:37;;;;;;;36.88;13.90;;;5.40;99.90;;;;;;5074163;28;20408;-52
2023/03/06 12:28:30;;;;;;;38.67;15.00;;;5.30;99.90;;;;;;5091678;28;20078;-51
2023/03/06 12:31:02;;;;;;;33.95;13.57;;;5.40;99.90;;;;;;5090043;28;20069;-51
2023/03/06 12:33:49;;;;;;;32.55;12.38;;;5.30;99.90;;;;;;5091552;28;20048;-53
2023/03/06 12:36:51;;;;;;;36.35;14.15;;;5.20;99.90;;;;;;5091398;28;20573;-52
2023/03/06 12:39:29;;;;;;;32.88;14.50;;;5.20;99.90;;;;;;5084208;28;20458;-50
2023/03/06 12:42:14;;;;;;;31.45;13.45;;;5.20;99.90;;;;;;5091853;28;20063;-51
2023/03/06 12:45:08;;;;;;;41.47;13.10;;;5.20;99.90;;;;;;5090094;28;20101;-52
2023/03/06 12:47:41;;;;;;;37.80;14.00;;;5.20;99.90;;;;;;5090996;28;20048;-53
2023/03/06 12:50:26;;;;;;;34.15;13.20;;;5.30;99.90;;;;;;5090034;28;20456;-54
2023/03/06 12:52:55;;;;;;;34.97;13.25;;;5.30;99.90;;;;;;5091388;28;20109;-50
2023/03/06 12:55:23;;;;;;;40.60;14.23;;;5.30;99.90;;;;;;5091832;28;20479;-53
2023/03/06 12:57:52;;;;;;;38.30;13.50;;;5.30;99.90;;;;;;5090881;28;20066;-51
2023/03/06 13:00:31;;;;;;;39.63;13.80;;;5.30;99.90;;;;;;5082820;28;20040;-50